Time;durP1;ratioP1;P1;durP2;ratioP2;P2;SDS_P1;SDS_P2;PMS_P1;PMS_P2;Temp;Humidity;BMP_temperature;BMP_pressure;BME280_temperature;BME280_humidity;BME280_pressure;Samples;Min_cycle;Max_cycle;Signal;HPM_P1;HPM_P2
2023/04/01 00:01:42;;;;;;;15.20;5.57;;;;;;;8.64;100.00;130181.19;5074137;28;20024;-62
2023/04/01 00:04:07;;;;;;;10.23;6.90;;;;;;;8.65;100.00;129484.13;5073544;28;20033;-62
2023/04/01 00:06:33;;;;;;;11.35;5.47;;;;;;;8.65;100.00;129135.59;5072003;28;20530;-62
2023/04/01 00:08:58;;;;;;;7.18;4.65;;;;;;;8.65;100.00;128435.50;5073969;28;20387;-62
2023/04/01 00:11:24;;;;;;;8.13;5.38;;;;;;;8.62;100.00;128079.72;5072053;28;20488;-62
2023/04/01 00:13:49;;;;;;;8.77;4.70;;;;;;;8.53;100.00;127713.50;5073839;28;20089;-62
2023/04/01 00:16:15;;;;;;;4.65;3.72;;;;;;;8.60;100.00;126678.03;5072264;28;20040;-62
2023/04/01 00:18:40;;;;;;;8.68;4.30;;;;;;;8.62;100.00;125635.41;5073362;28;20028;-62
2023/04/01 00:21:06;;;;;;;13.95;5.38;;;;;;;8.66;100.00;124944.16;5072144;28;20495;-62
2023/04/01 00:23:31;;;;;;;10.48;5.22;;;;;;;8.69;100.00;124950.28;5073727;28;20483;-62
2023/04/01 00:26:00;;;;;;;7.05;5.20;;;;;;;8.66;100.00;125293.38;5071902;28;20040;-62
2023/04/01 00:28:26;;;;;;;;;;;;;;;8.64;100.00;125638.47;5074158;28;20023;-62
2023/04/01 00:30:52;;;;;;;6.70;4.13;;;;;;;8.62;100.00;125285.13;5071674;28;19932;-62
2023/04/01 00:33:17;;;;;;;6.95;5.35;;;;;;;8.63;100.00;124588.81;5073416;28;20130;-62
2023/04/01 00:35:44;;;;;;;5.30;4.35;;;;;;;8.46;100.00;124555.06;5072114;28;20453;-62
2023/04/01 00:38:11;;;;;;;5.78;4.72;;;;;;;8.63;100.00;123890.59;5073516;28;20070;-62
2023/04/01 00:40:40;;;;;;;7.20;5.22;;;;;;;8.63;100.00;123542.53;5070950;28;20127;-61
2023/04/01 00:43:19;;;;;;;9.20;5.03;;;;;;;8.61;100.00;123188.41;5073204;28;20021;-62
2023/04/01 00:45:44;;;;;;;;;;;;;;;8.61;100.00;122839.41;5072102;28;20503;-62
2023/04/01 00:48:22;;;;;;;6.38;4.30;;;;;;;8.57;100.00;122484.44;5072989;28;19920;-62
2023/04/01 00:51:02;;;;;;;6.50;4.53;;;;;;;8.48;100.00;121071.00;5071751;28;20093;-62
2023/04/01 00:53:30;;;;;;;6.63;5.10;;;;;;;8.62;100.00;120399.19;5073441;28;20139;-62
2023/04/01 00:56:07;;;;;;;7.80;4.15;;;;;;;8.61;100.00;120048.44;5071146;28;20089;-62
2023/04/01 00:58:38;;;;;;;6.32;4.82;;;;;;;8.54;100.00;119338.28;5073030;28;20020;-62
2023/04/01 01:01:04;;;;;;;5.22;4.45;;;;;;;8.59;100.00;118998.44;5071317;28;20044;-60
2023/04/01 01:03:29;;;;;;;9.70;5.75;;;;;;;8.59;100.00;118301.19;5072957;28;20020;-61
2023/04/01 01:06:09;;;;;;;7.43;4.50;;;;;;;8.60;100.00;116908.97;5071229;28;20036;-61
2023/04/01 01:09:17;;;;;;;9.40;5.22;;;;;;;8.57;100.00;116905.13;5073168;28;20100;-61
2023/04/01 01:11:52;;;;;;;11.95;5.28;;;;;;;8.60;100.00;115863.66;5071386;28;20044;-60
2023/04/01 01:14:33;;;;;;;6.15;5.65;;;;;;;8.52;100.00;115501.09;5071697;28;20099;-60
2023/04/01 01:17:06;;;;;;;5.90;4.43;;;;;;;8.57;100.00;114118.34;5072206;28;20028;-60
2023/04/01 01:19:50;;;;;;;4.47;4.10;;;;;;;8.61;100.00;113079.31;5071180;28;20064;-61
2023/04/01 01:22:40;;;;;;;6.38;5.32;;;;;;;8.62;100.00;112733.03;5072947;28;20448;-61
2023/04/01 01:25:31;;;;;;;8.50;5.97;;;;;;;8.56;100.00;112026.78;5070499;28;20447;-60
2023/04/01 01:28:23;;;;;;;6.30;5.38;;;;;;;8.57;100.00;111681.47;5072512;28;20032;-61
2023/04/01 01:30:55;;;;;;;7.65;4.82;;;;;;;8.54;100.00;110980.03;5069986;28;20051;-61
2023/04/01 01:33:35;;;;;;;6.60;5.22;;;;;;;8.61;100.00;110295.00;5072268;28;20028;-61
2023/04/01 01:36:06;;;;;;;8.38;5.72;;;;;;;8.59;100.00;109595.66;5070928;28;20040;-61
2023/04/01 01:38:35;;;;;;;5.38;4.88;;;;;;;8.57;100.00;109246.03;5072369;28;20067;-60
2023/04/01 01:41:03;;;;;;;7.28;4.78;;;;;;;8.59;100.00;108900.03;5069833;28;20064;-61
2023/04/01 01:43:35;;;;;;;11.20;5.45;;;;;;;8.58;100.00;108551.34;5072143;28;20066;-60
2023/04/01 01:46:07;;;;;;;6.75;5.28;;;;;;;8.60;100.00;107859.44;5070314;28;20170;-61
2023/04/01 01:48:36;;;;;;;9.32;5.20;;;;;;;8.60;100.00;107510.88;5071895;28;20096;-61
2023/04/01 01:51:05;;;;;;;7.25;6.30;;;;;;;8.63;100.00;107168.44;5070618;28;20048;-61
2023/04/01 01:53:30;;;;;;;8.60;5.50;;;;;;;8.59;100.00;107161.44;5071817;28;20031;-61
2023/04/01 01:55:55;;;;;;;6.45;4.57;;;;;;;8.61;100.00;106817.28;5070021;28;20048;-61
2023/04/01 01:58:40;;;;;;;8.70;5.10;;;;;;;8.57;100.00;106812.06;5071885;28;20028;-61
2023/04/01 02:01:11;;;;;;;6.40;5.55;;;;;;;8.61;100.00;106122.09;5069994;28;20380;-60
2023/04/01 02:03:39;;;;;;;6.82;4.95;;;;;;;8.61;100.00;105774.56;5071955;28;20020;-61
2023/04/01 02:06:08;;;;;;;9.57;4.90;;;;;;;8.62;100.00;105428.75;5070379;28;20068;-61
2023/04/01 02:08:40;;;;;;;7.90;5.85;;;;;;;8.63;100.00;105082.97;5071199;28;20046;-61
2023/04/01 02:11:08;;;;;;;9.80;5.72;;;;;;;8.62;100.00;105082.13;5070173;28;20048;-61
2023/04/01 02:13:50;;;;;;;9.02;5.75;;;;;;;8.63;100.00;104735.50;5071922;28;20472;-62
2023/04/01 02:16:22;;;;;;;8.25;5.93;;;;;;;8.66;100.00;104393.19;5069812;28;20036;-61
2023/04/01 02:18:51;;;;;;;7.53;6.13;;;;;;;8.66;100.00;104393.19;5071290;28;20048;-61
2023/04/01 02:21:18;;;;;;;;;;;;;;;8.66;100.00;104393.19;5070399;28;20044;-61
2023/04/01 02:23:45;;;;;;;5.90;5.35;;;;;;;8.65;100.00;104738.94;5071141;28;20363;-62
2023/04/01 02:26:12;;;;;;;8.93;6.60;;;;;;;8.63;100.00;104736.38;5070220;28;20491;-61
2023/04/01 02:28:40;;;;;;;8.43;5.50;;;;;;;8.65;100.00;104391.47;5071581;28;20016;-61
2023/04/01 02:31:07;;;;;;;13.50;7.65;;;;;;;8.63;100.00;104388.06;5069395;28;20453;-61
2023/04/01 02:33:33;;;;;;;6.78;5.88;;;;;;;8.69;100.00;104050.81;5071439;28;20024;-61
2023/04/01 02:35:59;;;;;;;12.88;7.70;;;;;;;8.70;100.00;104052.53;5069240;28;20415;-61
2023/04/01 02:38:24;;;;;;;10.23;7.20;;;;;;;8.68;100.00;104396.56;5070556;28;20021;-61
2023/04/01 02:40:56;;;;;;;9.57;8.40;;;;;;;8.70;100.00;104747.47;5069448;28;20040;-61
2023/04/01 02:43:21;;;;;;;18.08;9.15;;;;;;;8.66;100.00;105088.13;5071381;28;20051;-61
2023/04/01 02:45:47;;;;;;;12.45;9.35;;;;;;;8.68;100.00;105092.41;5069046;28;20491;-61
2023/04/01 02:48:13;;;;;;;16.38;9.45;;;;;;;8.71;100.00;104749.19;5071157;28;20498;-61
2023/04/01 02:50:39;;;;;;;9.75;7.25;;;;;;;8.73;100.00;104753.44;5069767;28;20037;-61
2023/04/01 02:53:06;;;;;;;10.90;9.23;;;;;;;8.75;100.00;105103.53;5070297;28;20499;-61
2023/04/01 02:55:31;;;;;;;11.98;8.65;;;;;;;8.77;100.00;105453.72;5069621;28;20467;-60
2023/04/01 02:57:57;;;;;;;10.65;8.20;;;;;;;8.78;100.00;105803.91;5070551;28;20024;-59
2023/04/01 03:00:22;;;;;;;10.55;8.18;;;;;;;8.79;100.00;106500.97;5068957;28;20051;-60
2023/04/01 03:02:48;;;;;;;13.73;10.63;;;;;;;8.78;100.00;107194.69;5070886;28;20043;-60
2023/04/01 03:05:13;;;;;;;12.90;9.30;;;;;;;8.77;100.00;107888.47;5068881;28;20075;-60
2023/04/01 03:07:38;;;;;;;13.40;8.43;;;;;;;8.75;100.00;108580.59;5070456;28;20048;-61
2023/04/01 03:10:05;;;;;;;10.45;9.43;;;;;;;8.76;100.00;108582.38;5069034;28;20052;-62
2023/04/01 03:12:31;;;;;;;14.38;8.77;;;;;;;8.75;100.00;108928.47;5070789;28;20032;-63
2023/04/01 03:14:56;;;;;;;11.35;9.43;;;;;;;8.74;100.00;108926.72;5069243;28;20047;-63
2023/04/01 03:17:21;;;;;;;13.23;9.45;;;;;;;8.76;100.00;108582.38;5070175;28;20024;-60
2023/04/01 03:19:47;;;;;;;12.43;10.20;;;;;;;8.77;100.00;108584.16;5068621;28;20369;-60
2023/04/01 03:22:12;;;;;;;11.50;9.55;;;;;;;8.74;100.00;108578.84;5070734;28;20021;-60
2023/04/01 03:24:38;;;;;;;11.32;10.15;;;;;;;8.76;100.00;107886.72;5069068;28;20173;-60
2023/04/01 03:27:03;;;;;;;12.38;10.10;;;;;;;8.76;100.00;107886.72;5070391;28;20384;-60
2023/04/01 03:29:28;;;;;;;14.45;9.90;;;;;;;8.78;100.00;107541.59;5069194;28;20036;-60
2023/04/01 03:31:54;;;;;;;14.88;9.95;;;;;;;8.73;100.00;107533.69;5070106;28;20078;-60
2023/04/01 03:34:19;;;;;;;17.27;11.35;;;;;;;8.75;100.00;106841.69;5068857;28;20020;-60
2023/04/01 03:36:45;;;;;;;15.57;11.32;;;;;;;8.77;100.00;106497.50;5070320;28;20024;-60
2023/04/01 03:39:10;;;;;;;15.23;10.98;;;;;;;8.78;100.00;106151.56;5068700;28;20074;-60
2023/04/01 03:41:37;;;;;;;16.00;11.07;;;;;;;8.77;100.00;105454.56;5070391;28;20023;-60
2023/04/01 03:44:02;;;;;;;11.27;9.82;;;;;;;8.77;100.00;105454.56;5070070;28;20150;-60
2023/04/01 03:46:28;;;;;;;16.50;10.68;;;;;;;8.75;100.00;105450.28;5068410;28;20059;-60
2023/04/01 03:48:53;;;;;;;16.48;12.05;;;;;;;8.76;100.00;104757.72;5070332;28;20029;-60
2023/04/01 03:51:19;;;;;;;16.63;12.15;;;;;;;8.61;100.00;104732.06;5068962;28;20039;-60
2023/04/01 03:53:44;;;;;;;17.45;10.52;;;;;;;8.71;100.00;104749.19;5070056;28;20387;-60
2023/04/01 03:56:10;;;;;;;11.57;9.15;;;;;;;8.74;100.00;104406.81;5068739;28;20048;-60
2023/04/01 03:58:36;;;;;;;11.88;10.38;;;;;;;8.75;100.00;104060.16;5069970;28;20468;-61
2023/04/01 04:01:01;;;;;;;13.07;9.35;;;;;;;8.75;100.00;103712.72;5068075;28;20578;-62
2023/04/01 04:03:27;;;;;;;12.57;10.00;;;;;;;8.72;100.00;103361.09;5070201;28;20029;-61
2023/04/01 04:05:53;;;;;;;12.02;9.15;;;;;;;8.73;100.00;103015.41;5068324;28;20092;-61
2023/04/01 04:08:21;;;;;;;17.40;9.88;;;;;;;8.73;100.00;102668.88;5069945;28;20162;-61
2023/04/01 04:10:46;;;;;;;13.18;8.57;;;;;;;8.73;100.00;102668.88;5068604;28;20029;-61
2023/04/01 04:13:12;;;;;;;15.63;9.55;;;;;;;8.76;100.00;101977.59;5069182;28;20036;-59
2023/04/01 04:15:38;;;;;;;13.52;8.00;;;;;;;8.72;100.00;101971.75;5067682;28;20040;-60
2023/04/01 04:18:03;;;;;;;11.23;7.97;;;;;;;8.75;100.00;101628.66;5073599;28;20020;-60
2023/04/01 04:20:29;;;;;;;18.90;9.68;;;;;;;8.74;100.00;101280.59;5071300;28;20052;-60
2023/04/01 04:22:54;;;;;;;12.70;9.30;;;;;;;8.75;100.00;100935.00;5073182;28;20020;-60
2023/04/01 04:25:19;;;;;;;8.73;6.90;;;;;;;8.76;100.00;100936.66;5072576;28;20047;-59
2023/04/01 04:27:45;;;;;;;10.48;8.50;;;;;;;8.76;100.00;100589.47;5073507;28;20028;-59
2023/04/01 04:30:10;;;;;;;12.88;9.88;;;;;;;8.78;100.00;100592.75;5071172;28;20075;-60
2023/04/01 04:32:36;;;;;;;11.52;9.27;;;;;;;8.76;100.00;100936.66;5071766;28;20035;-59
2023/04/01 04:35:01;;;;;;;12.30;9.63;;;;;;;8.76;100.00;101283.88;5070474;28;20040;-60
2023/04/01 04:37:26;;;;;;;15.15;10.57;;;;;;;8.60;100.00;101604.66;5072859;28;20074;-60
2023/04/01 04:39:52;;;;;;;12.30;9.75;;;;;;;8.71;100.00;101970.09;5071509;28;20045;-59
2023/04/01 04:42:17;;;;;;;14.23;10.68;;;;;;;8.70;100.00;102315.72;5071368;28;20036;-59
2023/04/01 04:44:42;;;;;;;15.45;9.75;;;;;;;8.70;100.00;101968.44;5066548;28;20047;-59
2023/04/01 04:47:08;;;;;;;11.20;9.05;;;;;;;8.71;100.00;102317.38;5061182;28;20028;-62
2023/04/01 04:49:33;;;;;;;14.63;11.95;;;;;;;8.69;100.00;101966.78;5065889;28;20041;-62
2023/04/01 04:51:58;;;;;;;13.45;10.48;;;;;;;8.71;100.00;101970.09;5052047;28;20392;-62
2023/04/01 04:54:24;;;;;;;12.43;10.55;;;;;;;8.71;100.00;101622.84;5053435;28;20075;-62
2023/04/01 04:56:52;;;;;;;13.88;9.70;;;;;;;8.74;100.00;101280.59;5070443;28;20028;-62
2023/04/01 04:59:17;;;;;;;12.20;9.73;;;;;;;8.72;100.00;101625.31;5070682;28;20024;-62
2023/04/01 05:01:43;;;;;;;10.68;8.18;;;;;;;8.71;100.00;101970.91;5072445;28;20609;-62
2023/04/01 05:04:08;;;;;;;13.07;9.20;;;;;;;8.72;100.00;101972.59;5069618;28;20024;-62
2023/04/01 05:06:33;;;;;;;12.48;10.48;;;;;;;8.70;100.00;102316.56;5072419;28;20024;-63
2023/04/01 05:08:59;;;;;;;11.52;8.52;;;;;;;8.71;100.00;102317.38;5071740;28;20016;-62
2023/04/01 05:11:25;;;;;;;10.65;8.65;;;;;;;8.72;100.00;102666.38;5069685;28;20051;-62
2023/04/01 05:13:51;;;;;;;13.15;9.30;;;;;;;8.69;100.00;103009.53;5071747;28;20027;-62
2023/04/01 05:16:19;;;;;;;10.90;9.02;;;;;;;8.70;100.00;103010.34;5070669;28;20040;-62
2023/04/01 05:18:44;;;;;;;13.77;9.77;;;;;;;8.70;100.00;103011.22;5070687;28;20499;-62
2023/04/01 05:21:12;;;;;;;10.77;8.02;;;;;;;8.70;100.00;103010.34;5069331;28;20052;-62
2023/04/01 05:23:37;;;;;;;10.02;7.97;;;;;;;8.71;100.00;103012.03;5072338;28;20031;-62
2023/04/01 05:26:08;;;;;;;9.02;7.25;;;;;;;8.68;100.00;103355.19;5070616;28;20037;-63
2023/04/01 05:28:34;;;;;;;9.65;7.90;;;;;;;8.68;100.00;103701.72;5070801;28;20028;-62
2023/04/01 05:31:00;;;;;;;11.00;7.75;;;;;;;8.66;100.00;104046.59;5069973;28;20192;-61
2023/04/01 05:33:26;;;;;;;10.27;7.47;;;;;;;8.65;100.00;104391.47;5071524;28;20028;-61
2023/04/01 05:35:52;;;;;;;9.38;7.07;;;;;;;8.67;100.00;104047.47;5068780;28;20057;-61
2023/04/01 05:38:17;;;;;;;10.77;8.50;;;;;;;8.66;100.00;104045.75;5071771;28;20024;-60
2023/04/01 05:40:43;;;;;;;10.13;8.00;;;;;;;8.62;100.00;103691.56;5070217;28;20052;-61
2023/04/01 05:43:08;;;;;;;11.30;7.63;;;;;;;8.64;100.00;103694.97;5070219;28;20020;-60
2023/04/01 05:45:34;;;;;;;12.55;8.18;;;;;;;8.64;100.00;103001.09;5069588;28;20052;-61
2023/04/01 05:47:59;;;;;;;11.60;9.05;;;;;;;8.69;100.00;102661.34;5071033;28;20024;-61
2023/04/01 05:50:25;;;;;;;12.55;8.88;;;;;;;8.67;100.00;102658.00;5068724;28;20511;-61
2023/04/01 05:52:50;;;;;;;10.43;8.38;;;;;;;8.68;100.00;102312.38;5071485;28;20024;-59
2023/04/01 05:55:16;;;;;;;10.10;7.18;;;;;;;8.67;100.00;102310.72;5069460;28;20075;-59
2023/04/01 05:57:41;;;;;;;10.57;8.25;;;;;;;8.68;100.00;102312.38;5069987;28;20029;-59
2023/04/01 06:00:07;;;;;;;11.50;8.48;;;;;;;8.69;100.00;101967.63;5069700;28;20044;-59
2023/04/01 06:02:32;;;;;;;10.88;8.90;;;;;;;8.70;100.00;101969.28;5065748;28;20111;-61
2023/04/01 06:05:25;;;;;;;13.52;9.27;;;;;;;8.68;100.00;101965.09;5048849;28;20166;-59
2023/04/01 06:08:00;;;;;;;12.18;7.88;;;;;;;8.68;100.00;101965.94;5049547;28;20053;-58
2023/04/01 06:11:00;;;;;;;11.68;8.63;;;;;;;8.71;100.00;101970.09;5049756;28;20044;-58
2023/04/01 06:13:52;;;;;;;13.07;9.55;;;;;;;8.39;100.00;102266.50;5061174;28;20032;-59
2023/04/01 06:16:27;;;;;;;10.98;7.55;;;;;;;8.69;100.00;102662.19;5065443;28;20085;-58
2023/04/01 06:18:59;;;;;;;11.77;9.35;;;;;;;8.69;100.00;102662.19;5066785;28;20045;-59
2023/04/01 06:21:41;;;;;;;11.77;8.27;;;;;;;8.71;100.00;102317.38;5067708;28;20032;-59
2023/04/01 06:24:27;;;;;;;12.50;7.85;;;;;;;8.74;100.00;102322.41;5068824;28;20094;-59
2023/04/01 06:26:59;;;;;;;16.02;11.00;;;;;;;8.76;100.00;101631.13;5069417;28;20017;-59
2023/04/01 06:29:42;;;;;;;15.20;9.25;;;;;;;8.78;100.00;101287.19;5069163;28;20135;-59
2023/04/01 06:32:45;;;;;;;15.07;12.35;;;;;;;8.80;100.00;100943.25;5067267;28;20083;-58
2023/04/01 06:35:10;;;;;;;16.42;11.93;;;;;;;8.87;100.00;99912.25;5064466;28;20140;-59
2023/04/01 06:38:10;;;;;;;16.58;11.43;;;;;;;8.91;100.00;99223.59;5068265;28;20484;-58
2023/04/01 06:41:21;;;;;;;11.60;9.07;;;;;;;8.95;100.00;98535.81;5061706;28;20079;-59
2023/04/01 06:44:11;;;;;;;14.50;10.02;;;;;;;9.01;100.00;97851.22;5069915;28;20013;-59
2023/04/01 06:46:45;;;;;;;16.13;12.45;;;;;;;9.05;100.00;97163.41;5067844;28;20082;-58
2023/04/01 06:49:32;;;;;;;13.93;9.65;;;;;;;9.12;100.00;96827.41;5064981;28;20546;-58
2023/04/01 06:52:26;;;;;;;15.00;9.73;;;;;;;9.16;100.00;96832.91;5069369;28;20043;-58
2023/04/01 06:54:58;;;;;;;14.82;9.88;;;;;;;9.19;100.00;97185.56;5064260;28;20044;-59
2023/04/01 06:57:32;;;;;;;15.20;10.30;;;;;;;9.21;100.00;97883.03;5067607;28;20055;-59
2023/04/01 07:00:00;;;;;;;15.98;10.98;;;;;;;9.30;100.00;98243.03;5068848;28;20392;-62
2023/04/01 07:02:36;;;;;;;11.45;10.20;;;;;;;9.33;100.00;98595.16;5070294;28;20107;-59
2023/04/01 07:05:02;;;;;;;11.60;8.10;;;;;;;9.32;100.00;99983.03;5066685;28;20392;-59
2023/04/01 07:07:38;;;;;;;10.90;8.50;;;;;;;9.35;100.00;101377.94;5070046;28;20479;-59
2023/04/01 07:10:10;;;;;;;11.15;9.02;;;;;;;9.37;100.00;102771.81;5067377;28;20106;-58
2023/04/01 07:12:56;;;;;;;11.23;8.10;;;;;;;9.40;100.00;104515.81;5067656;28;20029;-58
2023/04/01 07:15:36;;;;;;;8.20;6.82;;;;;;;9.42;100.00;106607.00;5067729;28;20055;-59
2023/04/01 07:18:07;;;;;;;8.32;7.43;;;;;;;9.47;100.00;108355.63;5069859;28;20119;-60
2023/04/01 07:20:36;;;;;;;10.07;9.15;;;;;;;9.49;100.00;110101.66;5061242;28;20041;-59
2023/04/01 07:23:05;;;;;;;13.38;9.25;;;;;;;9.53;100.00;110805.78;5065526;28;20162;-59
2023/04/01 07:25:37;;;;;;;9.38;8.00;;;;;;;9.59;100.00;111861.41;5068666;28;20079;-60
2023/04/01 07:28:11;;;;;;;7.45;5.80;;;;;;;9.35;100.00;113562.09;5069838;28;20043;-59
2023/04/01 07:30:57;;;;;;;7.30;6.50;;;;;;;9.69;100.00;113623.34;5056614;28;20045;-59
2023/04/01 07:33:28;;;;;;;12.07;8.48;;;;;;;9.81;100.00;113294.94;5049507;28;20036;-59
2023/04/01 07:36:02;;;;;;;7.38;6.20;;;;;;;9.90;100.00;112961.78;5047948;28;20053;-59
2023/04/01 07:38:37;;;;;;;8.15;7.28;;;;;;;9.92;100.00;114012.25;5049875;28;20047;-59
2023/04/01 07:41:17;;;;;;;8.85;6.10;;;;;;;9.98;100.00;116118.91;5064370;28;20048;-59
2023/04/01 07:44:07;;;;;;;7.60;6.88;;;;;;;10.09;100.00;118234.84;5068859;28;20066;-59
2023/04/01 07:47:02;;;;;;;6.57;5.97;;;;;;;10.12;100.00;122086.34;5068749;28;20036;-59
2023/04/01 07:49:45;;;;;;;6.43;5.78;;;;;;;10.12;100.00;128387.06;5068175;28;20044;-60
2023/04/01 07:52:46;;;;;;;6.03;5.43;;;;;;;10.06;100.00;137491.63;5074100;28;20028;-59
2023/04/01 07:55:17;;;;;;;5.57;5.07;;;;;;;10.14;100.00;140670.78;5045384;28;20036;-60
2023/04/01 07:57:55;;;;;;;6.20;5.60;;;;;;;10.13;100.00;143831.91;5053431;28;20115;-60
2023/04/01 08:00:44;;;;;;;5.78;5.22;;;;;;;10.25;100.00;143506.28;5058893;28;20041;-60
2023/04/01 08:03:28;;;;;;;6.05;5.45;;;;;;;10.28;100.00;143865.06;5073761;28;20147;-59
2023/04/01 08:06:21;;;;;;;5.93;5.32;;;;;;;10.44;100.00;141792.72;5071834;28;20052;-60
2023/04/01 08:09:05;;;;;;;7.00;6.32;;;;;;;10.47;100.00;142853.59;5073739;28;20027;-60
2023/04/01 08:11:48;;;;;;;7.28;5.95;;;;;;;10.52;100.00;145680.41;5071546;28;20036;-60
2023/04/01 08:14:57;;;;;;;7.38;5.35;;;;;;;10.46;100.00;152712.56;5070989;28;20030;-60
2023/04/01 08:17:36;;;;;;;6.63;5.13;;;;;;;10.44;100.00;159669.50;5053073;28;20047;-59
2023/04/01 08:20:25;;;;;;;7.88;5.53;;;;;;;10.47;100.00;163195.28;5071505;28;20747;-60
2023/04/01 08:23:17;;;;;;;5.95;5.43;;;;;;;10.45;100.00;163296.25;5073031;28;20028;-60
2023/04/01 08:26:06;;;;;;;44.15;35.45;;;;;;;10.48;100.00;163305.69;5071547;28;20044;-60
2023/04/01 08:28:57;;;;;;;6.18;5.50;;;;;;;10.61;100.00;163338.13;5073343;28;20145;-60
2023/04/01 08:31:33;;;;;;;5.75;5.25;;;;;;;10.69;100.00;163359.66;5071732;28;20082;-60
2023/04/01 08:34:04;;;;;;;7.18;5.03;;;;;;;10.72;100.00;163367.78;5072733;28;20086;-60
2023/04/01 08:36:37;;;;;;;7.53;5.47;;;;;;;10.60;100.00;163336.75;5071204;28;20039;-60
2023/04/01 08:39:18;;;;;;;8.15;6.38;;;;;;;10.56;100.00;163324.59;5072271;28;20483;-60
2023/04/01 08:42:20;;;;;;;5.70;5.00;;;;;;;10.52;100.00;163313.81;5070585;28;20078;-60
2023/04/01 08:45:19;;;;;;;7.00;5.95;;;;;;;10.42;100.00;163288.19;5050109;28;20039;-60
2023/04/01 08:47:56;;;;;;;6.72;5.88;;;;;;;10.48;100.00;163305.69;5050894;28;20028;-60
2023/04/01 08:50:44;;;;;;;7.32;6.32;;;;;;;10.38;100.00;163277.34;5048733;28;20124;-60
2023/04/01 08:53:26;;;;;;;6.10;5.53;;;;;;;10.38;100.00;163278.72;5051438;28;20028;-60
2023/04/01 08:56:07;;;;;;;7.90;6.72;;;;;;;10.36;100.00;163271.91;5049030;28;20052;-60
2023/04/01 08:58:50;;;;;;;5.93;5.32;;;;;;;10.36;100.00;163273.25;5052688;28;20503;-60
2023/04/01 09:01:39;;;;;;;5.03;4.40;;;;;;;10.37;100.00;163274.66;5050980;28;20064;-60
2023/04/01 09:04:35;;;;;;;6.90;6.20;;;;;;;10.40;100.00;163284.09;5052425;28;20120;-60
2023/04/01 09:07:21;;;;;;;4.55;4.15;;;;;;;10.46;100.00;163300.28;5051234;28;20043;-60
2023/04/01 09:10:16;;;;;;;6.10;5.50;;;;;;;10.55;100.00;163321.88;5050622;28;20052;-60
2023/04/01 09:12:55;;;;;;;6.03;5.22;;;;;;;10.61;100.00;163338.13;5052302;28;20043;-59
2023/04/01 09:15:51;;;;;;;5.68;4.28;;;;;;;10.52;100.00;163313.81;5051130;28;20404;-60
2023/04/01 09:18:22;;;;;;;5.22;4.72;;;;;;;10.36;100.00;163273.25;5051877;28;20032;-60
2023/04/01 09:21:24;;;;;;;5.65;5.13;;;;;;;10.35;100.00;163270.56;5050257;28;20062;-60
2023/04/01 09:23:59;;;;;;;5.20;4.45;;;;;;;10.39;100.00;163280.06;5052082;28;20039;-60
2023/04/01 09:26:52;;;;;;;5.70;5.15;;;;;;;10.50;100.00;163308.41;5050545;28;20041;-60
2023/04/01 09:29:30;;;;;;;6.15;4.90;;;;;;;10.58;100.00;163330.00;5051040;28;20025;-60
2023/04/01 09:32:32;;;;;;;6.43;5.85;;;;;;;10.59;100.00;163332.72;5052084;28;20097;-60
2023/04/01 09:35:38;;;;;;;5.75;4.85;;;;;;;10.60;100.00;163335.41;5050805;28;20110;-60
2023/04/01 09:38:25;;;;;;;4.63;4.22;;;;;;;10.66;100.00;163351.59;5063975;28;20029;-60
2023/04/01 09:40:58;;;;;;;6.07;5.22;;;;;;;10.54;100.00;163320.56;5069880;28;20094;-61
2023/04/01 09:43:28;;;;;;;6.07;4.13;;;;;;;10.38;100.00;163278.72;5072040;28;20077;-60
2023/04/01 09:46:25;;;;;;;5.03;4.57;;;;;;;10.14;100.00;163215.22;5070267;28;20059;-61
2023/04/01 09:49:13;;;;;;;4.57;4.18;;;;;;;10.20;100.00;163230.06;5058384;28;20044;-60
2023/04/01 09:51:51;;;;;;;5.47;4.87;;;;;;;10.23;100.00;163238.19;5070422;28;20054;-60
2023/04/01 09:54:36;;;;;;;3.85;3.33;;;;;;;10.16;100.00;163221.94;5060857;28;20464;-60
2023/04/01 09:57:04;;;;;;;5.57;4.60;;;;;;;10.27;100.00;163250.34;5051228;28;20474;-60
2023/04/01 09:59:59;;;;;;;4.28;3.88;;;;;;;10.25;100.00;163244.94;5055732;28;20052;-59
2023/04/01 10:03:02;;;;;;;5.95;5.35;;;;;;;10.31;100.00;163261.13;5067644;28;20025;-60
2023/04/01 10:05:37;;;;;;;5.00;4.20;;;;;;;10.46;100.00;163298.97;5069870;28;20128;-60
2023/04/01 10:08:40;;;;;;;4.70;4.30;;;;;;;10.61;100.00;163338.13;5070548;28;20052;-60
2023/04/01 10:11:28;;;;;;;5.50;5.00;;;;;;;10.66;100.00;163351.59;5069409;28;20083;-60
2023/04/01 10:14:21;;;;;;;6.22;5.60;;;;;;;10.73;100.00;163370.50;5067129;28;20029;-60
2023/04/01 10:17:15;;;;;;;4.80;4.30;;;;;;;10.73;100.00;163369.13;5063132;28;20055;-60
2023/04/01 10:20:18;;;;;;;6.45;5.85;;;;;;;10.69;100.00;163359.66;5046693;28;20124;-60
2023/04/01 10:23:32;;;;;;;9.77;5.38;;;;;;;10.48;100.00;163305.69;5064248;28;20094;-60
2023/04/01 10:26:26;;;;;;;6.60;5.97;;;;;;;10.54;100.00;163319.19;5037291;28;20597;-59
2023/04/01 10:29:19;;;;;;;5.25;4.68;;;;;;;10.52;100.00;163313.81;5045175;28;20029;-60
2023/04/01 10:32:15;;;;;;;9.80;5.75;;;;;;;10.65;100.00;163348.91;5061271;28;20513;-60
2023/04/01 10:34:59;;;;;;;5.85;5.07;;;;;;;10.64;100.00;163346.19;5068622;28;20139;-60
2023/04/01 10:37:57;;;;;;;5.97;5.28;;;;;;;10.75;100.00;163374.53;5070439;28;20035;-60
2023/04/01 10:40:50;;;;;;;9.90;7.43;;;;;;;10.87;100.00;163406.91;5069083;28;20045;-60
2023/04/01 10:43:46;;;;;;;7.15;5.85;;;;;;;10.95;100.00;163427.19;5070073;28;20116;-60
2023/04/01 10:46:44;;;;;;;6.63;5.93;;;;;;;11.16;100.00;163481.19;5069200;28;20106;-60
2023/04/01 10:49:39;;;;;;;10.30;8.00;;;;;;;11.35;100.00;163532.53;5067952;28;20090;-60
2023/04/01 10:52:29;;;;;;;8.43;6.30;;;;;;;11.61;100.00;163600.03;5070449;28;20024;-59
2023/04/01 10:55:36;;;;;;;7.93;5.90;;;;;;;11.86;100.00;163664.91;5068600;28;20039;-60
2023/04/01 10:58:37;;;;;;;6.65;6.05;;;;;;;11.97;100.00;163694.63;5070182;28;20086;-60
2023/04/01 11:01:21;;;;;;;5.13;4.63;;;;;;;11.81;100.00;163652.72;5068724;28;20044;-60
2023/04/01 11:04:21;;;;;;;3.33;3.03;;;;;;;11.71;100.00;163625.69;5070301;28;20082;-59
2023/04/01 11:07:20;;;;;;;3.30;2.22;;;;;;;11.92;100.00;163681.09;5067721;28;20044;-60
2023/04/01 11:10:17;;;;;;;3.20;3.00;;;;;;;11.74;100.00;163635.16;5068538;28;20094;-61
2023/04/01 11:13:00;;;;;;;2.83;2.58;;;;;;;11.79;100.00;163645.97;5069724;28;20035;-61
2023/04/01 11:16:08;;;;;;;3.30;2.40;;;;;;;11.89;100.00;163672.97;5067160;28;20033;-60
2023/04/01 11:18:52;;;;;;;2.63;2.42;;;;;;;12.08;100.00;163721.69;5070092;28;20116;-61
2023/04/01 11:21:30;;;;;;;2.80;2.60;;;;;;;12.43;100.00;163813.53;5068990;28;20414;-60
2023/04/01 11:24:21;;;;;;;2.50;2.40;;;;;;;12.85;100.00;163924.34;5067672;28;20108;-60
2023/04/01 11:27:17;;;;;;;2.92;2.50;;;;;;;12.83;100.00;163918.97;5067447;28;20064;-60
2023/04/01 11:29:57;;;;;;;2.53;2.33;;;;;;;13.04;100.00;163974.38;5068703;28;20045;-60
2023/04/01 11:32:28;;;;;;;2.83;2.63;;;;;;;13.33;100.00;164051.44;5070024;28;20032;-62
2023/04/01 11:35:32;;;;;;;2.55;2.35;;;;;;;13.51;100.00;164097.50;5068452;28;20037;-61
2023/04/01 11:38:29;;;;;;;2.78;2.53;;;;;;;12.86;100.00;163927.06;5069808;28;20097;-61
2023/04/01 11:41:18;;;;;;;2.88;2.67;;;;;;;12.29;100.00;163777.03;5068468;28;20188;-61
2023/04/01 11:44:11;;;;;;;3.60;3.22;;;;;;;12.11;100.00;163729.75;5070209;28;20482;-61
2023/04/01 11:47:06;;;;;;;3.33;2.92;;;;;;;11.92;100.00;163681.09;5068624;28;20060;-60
2023/04/01 11:50:03;;;;;;;3.70;3.40;;;;;;;12.03;100.00;163710.84;5068296;28;20033;-61
2023/04/01 11:52:54;;;;;;;3.38;3.08;;;;;;;12.21;100.00;163756.78;5070137;28;20111;-60
2023/04/01 11:55:35;;;;;;;3.90;3.40;;;;;;;12.30;100.00;163779.75;5068500;28;20037;-61
2023/04/01 11:58:22;;;;;;;3.75;3.33;;;;;;;12.36;100.00;163797.34;5069822;28;20028;-60
2023/04/01 12:01:02;;;;;;;2.95;2.67;;;;;;;12.68;100.00;163879.75;5067839;28;20499;-60
2023/04/01 12:04:15;;;;;;;3.08;2.88;;;;;;;13.20;100.00;164016.31;5070058;28;20028;-61